Sacramento, CA (95827)

12:36 PM PDT on April 21, 2015 (GMT -0700)
MesoWest | | Change Station
CLOSE
Current Station
Personal Weather Station
Location: Sacramento, CA
Elevation: 75 ft
Nearby Weather Stations

Elev 75 ft 38.55 °N, 121.34 °W | Updated 1 hour ago

Mostly Cloudy
Mostly Cloudy
67 °F
Feels Like 67 °F
N
Wind Variable Wind from North
Gusts 0.0 mph

Today
High -- | Low -- °F
--% Chance of Precip.
Yesterday
High -- | Low -- °F
Precip. -- in
6:21 AM 7:47 PM
Waxing Crescent, 12% visible
Pressure 29.85 in
Visibility 10.0 miles
Clouds Mostly Cloudy 2000 ft
Dew Point Not available.
Humidity Not available.
Rainfall in
Snow Depth Not available.
UV 5 out of 12
Pollen 8.70 out of 12
Air Quality Not available.
Flu Activity Sporadic
METAR KMHR 211850Z 20008G14KT 10SM BKN020 18/10 A2985

More Conditions Fewer Conditions

Pressure 29.85 in
Visibility 10.0 miles
Clouds Mostly Cloudy 2000 ft
Dew Point Not available.
Humidity Not available.
Rainfall in
Snow Depth Not available.
UV 5 out of 12
Pollen 8.70 out of 12
Air Quality Not available.
Flu Activity Sporadic
METAR KMHR 211850Z 20008G14KT 10SM BKN020 18/10 A2985

More Conditions Fewer Conditions

10-Day Weather Forecast

Almanac

Astronomy

Apr. 21, 2015 Rise Set
Actual Time
Civil Twilight
Nautical Twilight
Astronomical Twilight
Moon
Length of Visible Light
Length of Day
Tomorrow will be .
, % of the Moon is Illuminated

Today's Extremes

State Highs State Lows

Community

WunderPhotos

Upload Photos

1,815,514 photos uploaded!

WunderBlogs® & News

Nearby

Air Quality

  Air Quality AQ Index Pollutant
Not available.

Snow Depth

Station Depth Elevation

Earthquake Activity

City Distance Mag. Time & Date
Minimum magnitude displayed is 2.5.

Coastal Water Temperatures

Place Temperature

Stations

Nearby Weather Stations

Station Location Temp. Windchill Dew Point Humidity Wind Precip. Elev Updated Type